Latest Weather Observations for Frankston

IDV60801

Issued at 2:05 pm EST Monday 15 September 2014 (issued every 30 minutes, with the page automatically refreshed every 10 minutes)

About weather observations | Map of weather stations | Latest weather observations for VIC | Other Formats
Station Details ID: 086371 Name: FRANKSTON AWS Lat: -38.15 Lon: 145.12 Height: 6.0 m
Data from the previous 72 hours. | See also: Recent months at Frankston
Date/Time
EST
Temp
°C
App
Temp
°C
Dew
Point
Rel
Hum
%
Delta-T
°C
Wind Press
QNH
hPa
Press
MSL
hPa
Rain
since 9 am
mm
Dir
 
Spd
km/h
Gust
km/h
Spd
kts
Gust
kts
15/02:00pm 16.0 13.4 10.7 71 2.8 SE 15 26 8 14 - - -
15/01:30pm 16.2 14.4 10.9 71 2.8 SE 11 20 6 11 - - -
15/01:00pm 16.4 15.0 10.9 70 2.9 SE 9 17 5 9 - - -
15/12:30pm 16.5 14.6 10.6 68 3.1 ESE 11 20 6 11 - - -
15/12:00pm 16.7 15.7 11.0 69 3.1 SE 7 15 4 8 - - -
15/11:30am 14.8 13.5 9.8 72 2.6 ESE 7 13 4 7 - - -
15/11:00am 13.6 11.7 9.1 74 2.3 ESE 9 17 5 9 - - -
15/10:30am 12.4 9.6 8.7 78 1.8 ESE 13 20 7 11 - - -
15/10:00am 12.0 10.1 9.0 82 1.5 ESE 9 17 5 9 - - -
15/09:30am 11.8 10.0 9.5 86 1.2 ESE 9 15 5 8 - - -
15/09:00am 11.1 9.7 9.5 90 0.8 E 7 13 4 7 - - -
15/08:30am 10.4 9.1 9.2 92 0.6 ESE 6 9 3 5 - - -
15/08:00am 9.9 8.9 8.8 93 0.5 E 4 6 2 3 - - -
15/07:30am 9.9 8.5 8.7 92 0.6 ENE 6 7 3 4 - - -
15/07:00am 10.1 9.8 8.7 91 0.7 CALM 0 0 0 0 - - -
15/06:30am 9.8 9.4 8.4 91 0.7 CALM 0 0 0 0 - - -
15/06:00am 9.7 9.3 8.3 91 0.7 CALM 0 0 0 0 - - -
15/05:30am 9.7 8.6 8.3 91 0.7 E 4 6 2 3 - - -
15/05:00am 10.0 9.3 8.6 91 0.7 ENE 2 4 1 2 - - -
15/04:30am 10.2 9.2 8.8 91 0.7 ESE 4 9 2 5 - - -
15/04:00am 10.0 8.9 8.6 91 0.7 ESE 4 7 2 4 - - -
15/03:30am 10.5 9.6 9.3 92 0.6 ESE 4 6 2 3 - - -
15/03:00am 10.5 9.9 9.1 91 0.7 SE 2 6 1 3 - - -
15/02:30am 10.2 9.9 8.8 91 0.7 CALM 0 0 0 0 - - -
15/02:00am 10.4 10.1 8.8 90 0.8 CALM 0 0 0 0 - - -
15/01:30am 10.5 10.3 8.9 90 0.8 CALM 0 4 0 2 - - -
15/01:00am 10.3 10.0 8.7 90 0.8 CALM 0 0 0 0 - - -
15/12:30am 10.5 9.5 8.9 90 0.8 S 4 4 2 2 - - -
15/12:00am 10.9 10.7 9.2 89 0.8 SSW 0 0 0 0 - - -
 
Date/Time
EST
Temp
°C
App
Temp
°C
Dew
Point
Rel
Hum
%
Delta-T
°C
Wind Press
QNH
hPa
Press
MSL
hPa
Rain
since 9 am
mm
Dir
 
Spd
km/h
Gust
km/h
Spd
kts
Gust
kts
14/11:30pm 11.2 10.7 9.3 88 1.0 E 2 2 1 1 - - -
14/11:00pm 11.6 10.8 9.5 87 1.1 NE 4 7 2 4 - - -
14/10:30pm 12.1 11.0 10.0 87 1.1 E 6 9 3 5 - - -
14/10:00pm 11.8 11.0 9.7 87 1.1 E 4 9 2 5 - - -
14/09:30pm 11.9 11.1 9.6 86 1.2 E 4 7 2 4 - - -
14/09:00pm 12.1 10.9 9.7 85 1.2 E 6 11 3 6 - - -
14/08:30pm 12.4 11.6 9.6 83 1.4 ENE 4 9 2 5 - - -
14/08:00pm 12.4 11.1 9.1 80 1.7 ESE 6 11 3 6 - - -
14/07:30pm 12.5 10.9 8.8 78 1.8 SSE 7 11 4 6 - - -
14/07:00pm 12.7 11.2 8.6 76 2.0 SSE 6 11 3 6 - - -
14/06:30pm 13.1 11.6 8.6 74 2.2 SE 6 13 3 7 - - -
14/06:00pm 13.7 12.0 8.3 70 2.7 SSE 7 13 4 7 - - -
14/05:30pm 14.6 11.5 7.2 61 3.6 SSE 13 22 7 12 - - -
14/05:00pm 15.4 12.6 6.9 57 4.2 SSE 11 19 6 10 - - -
14/04:30pm 16.2 13.4 6.9 54 4.6 SSE 11 20 6 11 - - -
14/04:00pm 16.8 14.3 8.0 56 4.5 S 11 26 6 14 - - -
14/03:30pm 14.7 11.4 8.0 64 3.3 W 15 17 8 9 - - -
14/03:00pm 14.5 11.2 6.3 58 3.9 W 13 15 7 8 - - -
14/02:30pm 14.0 10.7 6.6 61 3.6 W 13 15 7 8 - - -
14/02:00pm 13.5 10.5 7.5 67 2.9 W 13 15 7 8 - - -
14/01:30pm 13.1 10.6 8.0 71 2.5 W 11 13 6 7 - - -
14/01:00pm 12.8 10.3 8.3 74 2.2 W 11 11 6 6 - - -
14/12:30pm 12.2 10.0 7.9 75 2.1 W 9 9 5 5 - - -
14/12:00pm 11.6 10.0 7.9 78 1.8 W 6 7 3 4 - - -
14/11:30am 11.4 9.8 7.9 79 1.7 W 6 7 3 4 - - -
14/11:00am 11.3 9.7 8.0 80 1.6 W 6 7 3 4 - - -
14/10:30am 11.0 9.3 8.2 83 1.4 W 7 9 4 5 - - -
14/10:00am 10.7 8.9 7.9 83 1.4 W 7 9 4 5 - - -
14/09:30am 10.7 8.7 7.2 79 1.7 WNW 7 9 4 5 - - -
14/09:00am 10.8 9.1 7.5 80 1.6 WNW 6 7 3 4 - - -
14/08:30am 10.4 9.5 7.6 83 1.3 W 2 4 1 2 - - -
14/08:00am 10.3 9.8 7.7 84 1.2 CALM 0 0 0 0 - - -
14/07:30am 9.2 8.4 6.6 84 1.2 CALM 0 0 0 0 - - -
14/07:00am 9.5 8.8 6.9 84 1.2 CALM 0 0 0 0 - - -
14/06:30am 9.5 8.8 6.8 83 1.3 CALM 0 0 0 0 - - -
14/06:00am 9.9 9.3 7.2 83 1.3 CALM 0 0 0 0 - - -
14/05:30am 8.9 7.6 6.0 82 1.3 SE 2 4 1 2 - - -
14/05:00am 9.7 8.5 6.4 80 1.5 NE 2 2 1 1 - - -
14/04:30am 10.0 8.8 6.5 79 1.6 NE 2 4 1 2 - - -
14/04:00am 11.1 8.4 7.4 78 1.8 N 11 13 6 7 - - -
14/03:30am 9.8 8.2 6.3 79 1.6 E 4 6 2 3 - - -
14/03:00am 10.0 9.1 6.0 76 1.8 CALM 0 0 0 0 - - -
14/02:30am 10.3 9.4 6.1 75 1.9 CALM 0 0 0 0 - - -
14/02:00am 10.4 9.5 6.2 75 2.0 CALM 0 0 0 0 - - -
14/01:30am 10.8 10.0 6.4 74 2.1 CALM 0 0 0 0 - - -
14/01:00am 10.9 9.7 6.5 74 2.1 E 2 4 1 2 - - -
14/12:30am 11.3 10.5 6.6 73 2.2 CALM 0 0 0 0 - - -
14/12:00am 11.4 10.6 6.7 73 2.2 CALM 0 0 0 0 - - -
 
Date/Time
EST
Temp
°C
App
Temp
°C
Dew
Point
Rel
Hum
%
Delta-T
°C
Wind Press
QNH
hPa
Press
MSL
hPa
Rain
since 9 am
mm
Dir
 
Spd
km/h
Gust
km/h
Spd
kts
Gust
kts
13/11:30pm 11.2 10.4 6.7 74 2.1 CALM 0 0 0 0 - - -
13/11:00pm 10.9 9.7 6.5 74 2.1 ESE 2 4 1 2 - - -
13/10:30pm 10.9 10.1 6.5 74 2.1 CALM 0 4 0 2 - - -
13/10:00pm 11.3 9.1 6.4 72 2.3 E 7 9 4 5 - - -
13/09:30pm 11.8 10.2 6.5 70 2.5 E 4 4 2 2 - - -
13/09:00pm 12.2 10.6 6.5 68 2.7 E 4 6 2 3 - - -
13/08:30pm 12.6 11.3 6.0 64 3.1 ESE 2 6 1 3 - - -
13/08:00pm 12.9 11.6 5.8 62 3.3 ESE 2 6 1 3 - - -
13/07:30pm 13.1 11.3 5.5 60 3.6 SSE 4 7 2 4 - - -
13/07:00pm 13.5 11.8 6.1 61 3.5 SSW 4 7 2 4 - - -
13/06:30pm 13.8 11.5 5.7 58 3.8 SW 7 11 4 6 - - -
13/06:00pm 14.3 11.6 5.7 56 4.1 SW 9 15 5 8 - - -
13/05:30pm 14.8 11.6 5.3 53 4.5 SW 11 17 6 9 - - -
13/05:00pm 14.8 11.3 5.3 53 4.5 WSW 13 15 7 8 - - -
13/04:30pm 14.4 10.1 5.2 54 4.3 WSW 17 19 9 10 - - -
13/04:00pm 14.1 10.3 6.0 58 3.9 WSW 15 19 8 10 - - -
13/03:30pm 14.0 10.8 5.1 55 4.2 WSW 11 13 6 7 - - -
13/03:00pm 13.7 10.4 4.8 55 4.1 WSW 11 13 6 7 - - -
13/02:30pm 12.8 9.2 5.2 60 3.5 WSW 13 15 7 8 - - -
13/02:00pm 12.5 9.4 5.4 62 3.3 WSW 11 13 6 7 - - -
13/01:30pm 12.3 8.7 5.2 62 3.3 WSW 13 15 7 8 - - -
13/01:00pm 12.1 8.6 5.3 63 3.1 W 13 15 7 8 - - -
13/12:30pm 11.9 9.0 6.4 69 2.6 W 11 13 6 7 - - -
13/12:00pm 11.6 9.3 7.3 75 2.1 W 9 9 5 5 - - -
13/11:30am 11.2 9.3 6.7 74 2.1 W 6 7 3 4 - - -
13/11:00am 11.0 9.1 6.9 76 1.9 WNW 6 7 3 4 - - -
13/10:30am 10.4 8.4 6.4 76 1.9 W 6 6 3 3 - - -
13/10:00am 10.2 9.0 6.5 78 1.7 WNW 2 4 1 2 - - -
13/09:30am 9.8 8.9 6.2 78 1.7 CALM 0 4 0 2 - - -
13/09:00am 9.3 7.6 6.0 80 1.5 N 4 7 2 4 - - -
13/08:30am 8.8 7.1 5.9 82 1.3 N 4 6 2 3 - - -
13/08:00am 8.7 7.1 6.2 84 1.1 ENE 4 7 2 4 - - -
13/07:30am 7.7 5.9 5.5 86 1.0 E 4 6 2 3 - - -
13/07:00am 7.2 5.4 5.3 88 0.8 E 4 4 2 2 - - -
13/06:30am 7.1 4.9 5.3 88 0.8 E 6 7 3 4 - - -
13/06:00am 7.7 6.0 5.7 87 0.9 E 4 7 2 4 - - -
13/05:30am 8.3 6.6 5.9 85 1.1 E 4 6 2 3 - - -
13/05:00am 9.0 7.8 6.6 85 1.1 ESE 2 4 1 2 - - -
13/04:30am 8.4 7.1 5.9 84 1.1 ESE 2 4 1 2 - - -
13/04:00am 8.5 7.5 5.8 83 1.2 CALM 0 0 0 0 - - -
13/03:30am 7.7 6.5 4.8 82 1.3 CALM 0 0 0 0 - - -
13/03:00am 8.3 7.2 5.2 81 1.4 CALM 0 0 0 0 - - -
13/02:30am 7.8 6.3 4.9 82 1.3 ESE 2 7 1 4 - - -
13/02:00am 7.9 5.6 5.0 82 1.3 ESE 6 7 3 4 - - -
13/01:30am 7.8 6.2 4.7 81 1.4 ESE 2 6 1 3 - - -
13/01:00am 8.7 7.7 5.4 80 1.5 CALM 0 4 0 2 - - -
13/12:30am 8.8 6.4 5.4 79 1.5 E 7 11 4 6 - - -
13/12:00am 8.5 7.0 4.9 78 1.6 ESE 2 4 1 2 - - -
 
Date/Time
EST
Temp
°C
App
Temp
°C
Dew
Point
Rel
Hum
%
Delta-T
°C
Wind Press
QNH
hPa
Press
MSL
hPa
Rain
since 9 am
mm
Dir
 
Spd
km/h
Gust
km/h
Spd
kts
Gust
kts
12/11:30pm 8.9 7.0 4.9 76 1.8 ESE 4 6 2 3 - - -
12/11:00pm 8.5 6.6 4.7 77 1.7 ESE 4 7 2 4 - - -
12/10:30pm 9.1 7.6 4.9 75 1.9 ESE 2 4 1 2 - - -
12/10:00pm 8.6 7.4 4.8 77 1.7 CALM 0 0 0 0 - - -
12/09:30pm 9.1 8.0 4.9 75 1.9 CALM 0 0 0 0 - - -
12/09:00pm 9.6 7.8 5.4 75 1.9 SE 4 6 2 3 - - -
12/08:30pm 9.9 8.5 5.5 74 2.0 SE 2 4 1 2 - - -
12/08:00pm 10.4 8.7 5.8 73 2.1 SE 4 6 2 3 - - -
12/07:30pm 11.2 9.1 5.7 69 2.5 SE 6 7 3 4 - - -
12/07:00pm 11.2 9.2 6.1 71 2.4 SE 6 7 3 4 - - -
12/06:30pm 12.3 10.2 5.9 65 3.0 SW 6 7 3 4 - - -
12/06:00pm 12.5 10.1 7.0 69 2.6 WSW 9 11 5 6 - - -
12/05:30pm 12.5 10.0 6.5 67 2.9 WSW 9 11 5 6 - - -
12/05:00pm 12.4 10.3 6.7 68 2.7 W 7 11 4 6 - - -
12/04:30pm 12.3 9.8 6.6 68 2.7 W 9 9 5 5 - - -
12/04:00pm 12.2 10.1 6.5 68 2.7 WNW 7 9 4 5 - - -
12/03:30pm 12.1 9.8 5.9 66 2.9 WNW 7 9 4 5 - - -
12/03:00pm 12.0 10.0 6.3 68 2.7 WNW 6 7 3 4 - - -
12/02:30pm 11.7 9.6 6.8 72 2.3 W 7 11 4 6 - - -

Other Formats:

Comma delimited format used in spreadsheet applications
http://www.bom.gov.au/fwo/IDV60801/IDV60801.94871.axf

JavaScript Object Notation format (JSON) in row-major order
http://www.bom.gov.au/fwo/IDV60801/IDV60801.94871.json